createdAt,value
2018-09-25T00:00:02.382Z,6.77
2018-09-25T00:02:39.157Z,7.73
2018-09-25T00:05:15.894Z,8.60
2018-09-25T00:07:52.851Z,11.37
2018-09-25T00:10:30.433Z,15.47
2018-09-25T00:13:07.710Z,5.57
2018-09-25T00:15:45.080Z,10.73
2018-09-25T00:18:21.988Z,13.47
2018-09-25T00:20:59.003Z,8.80
2018-09-25T00:23:36.301Z,10.77
2018-09-25T00:26:14.261Z,12.70
2018-09-25T00:28:51.682Z,13.30
2018-09-25T00:31:28.723Z,13.57
2018-09-25T00:34:06.909Z,17.13
2018-09-25T00:36:44.157Z,11.03
2018-09-25T00:39:21.397Z,9.10
2018-09-25T00:41:59.168Z,10.87
2018-09-25T00:44:37.146Z,11.83
2018-09-25T00:47:16.550Z,11.50
2018-09-25T00:49:56.827Z,13.40
2018-09-25T00:52:34.356Z,13.13
2018-09-25T00:55:11.752Z,12.50
2018-09-25T00:57:50.196Z,9.73
2018-09-25T01:00:27.056Z,16.47
2018-09-25T01:03:07.887Z,15.13
2018-09-25T01:05:44.333Z,10.47
2018-09-25T01:08:21.750Z,15.83
2018-09-25T01:11:00.034Z,11.33
2018-09-25T01:13:40.210Z,11.87
2018-09-25T01:16:18.104Z,28.70
2018-09-25T01:18:56.113Z,10.97
2018-09-25T01:21:36.827Z,12.97
2018-09-25T01:24:16.100Z,9.43
2018-09-25T01:26:53.069Z,5.07
2018-09-25T01:29:29.616Z,10.63
2018-09-25T01:32:06.537Z,6.17
2018-09-25T01:34:44.342Z,7.37
2018-09-25T01:37:23.288Z,7.13
2018-09-25T01:40:04.018Z,8.77
2018-09-25T01:42:40.942Z,12.03
2018-09-25T01:45:19.922Z,13.47
2018-09-25T01:47:56.658Z,17.17
2018-09-25T01:50:34.716Z,11.47
2018-09-25T01:53:11.558Z,12.47
2018-09-25T01:56:21.145Z,14.77
2018-09-25T01:59:01.763Z,11.33
2018-09-25T02:01:39.842Z,13.57
2018-09-25T02:04:17.442Z,19.90
2018-09-25T02:06:55.144Z,15.40
2018-09-25T02:09:32.794Z,15.50
2018-09-25T02:12:11.148Z,15.67
2018-09-25T02:14:48.941Z,12.23
2018-09-25T02:17:27.880Z,13.80
2018-09-25T02:20:05.634Z,13.23
2018-09-25T02:22:43.850Z,12.23
2018-09-25T02:25:22.948Z,12.67
2018-09-25T02:28:02.542Z,18.13
2018-09-25T02:30:41.791Z,17.13
2018-09-25T02:33:19.848Z,9.30
2018-09-25T02:35:57.598Z,17.53
2018-09-25T02:38:35.524Z,15.33
2018-09-25T02:41:13.145Z,22.20
2018-09-25T02:43:50.685Z,23.53
2018-09-25T02:46:28.765Z,19.57
2018-09-25T02:49:06.345Z,13.33
2018-09-25T02:51:47.480Z,18.53
2018-09-25T02:54:25.549Z,13.37
2018-09-25T02:57:03.064Z,16.03
2018-09-25T02:59:40.556Z,14.73
2018-09-25T03:02:19.596Z,15.03
2018-09-25T03:04:56.961Z,16.10
2018-09-25T03:07:34.808Z,15.07
2018-09-25T03:10:12.411Z,15.70
2018-09-25T03:12:50.275Z,10.87
2018-09-25T03:15:28.991Z,16.63
2018-09-25T03:18:16.525Z,12.17
2018-09-25T03:20:55.860Z,13.37
2018-09-25T03:23:34.092Z,14.87
2018-09-25T03:29:33.039Z,15.70
2018-09-25T03:32:10.881Z,14.57
2018-09-25T03:34:48.098Z,13.57
2018-09-25T03:37:25.240Z,15.40
2018-09-25T03:40:02.079Z,11.13
2018-09-25T03:42:39.289Z,15.10
2018-09-25T03:45:16.561Z,11.63
2018-09-25T03:47:53.258Z,11.73
2018-09-25T03:50:30.146Z,18.90
2018-09-25T03:53:07.393Z,10.60
2018-09-25T03:55:44.552Z,14.20
2018-09-25T03:58:21.266Z,11.50
2018-09-25T04:01:00.565Z,11.10
2018-09-25T04:03:37.463Z,13.20
2018-09-25T04:06:15.100Z,16.33
2018-09-25T04:08:52.086Z,11.47
2018-09-25T04:11:30.507Z,6.50
2018-09-25T04:14:11.150Z,8.50
2018-09-25T04:16:50.557Z,11.37
2018-09-25T04:19:29.829Z,16.07
2018-09-25T04:22:07.014Z,15.63
2018-09-25T04:24:45.257Z,11.40
2018-09-25T04:27:22.653Z,11.53
2018-09-25T04:29:59.629Z,9.67
2018-09-25T04:32:36.589Z,12.03
2018-09-25T04:35:14.131Z,8.30
2018-09-25T04:37:51.060Z,8.70
2018-09-25T04:40:28.221Z,7.33
2018-09-25T04:43:05.534Z,22.80
2018-09-25T04:45:44.014Z,13.40
2018-09-25T04:48:24.829Z,13.43
2018-09-25T04:51:02.106Z,9.77
2018-09-25T04:53:40.576Z,13.33
2018-09-25T04:56:17.793Z,14.07
2018-09-25T04:58:55.218Z,13.97
2018-09-25T05:01:36.178Z,10.97
2018-09-25T05:04:13.525Z,15.27
2018-09-25T05:06:50.670Z,13.23
2018-09-25T05:09:29.466Z,12.63
2018-09-25T05:12:09.840Z,13.67
2018-09-25T05:14:49.294Z,16.83
2018-09-25T05:17:33.272Z,15.07
2018-09-25T05:20:12.518Z,15.90
2018-09-25T05:22:53.424Z,10.60
2018-09-25T05:25:31.477Z,11.87
2018-09-25T05:31:37.084Z,12.70
2018-09-25T05:34:14.331Z,12.37
2018-09-25T05:36:51.407Z,15.23
2018-09-25T05:39:29.554Z,16.77
2018-09-25T05:42:06.945Z,10.87
2018-09-25T05:44:44.228Z,16.43
2018-09-25T05:47:21.620Z,11.97
2018-09-25T05:53:20.088Z,11.53
2018-09-25T05:59:17.654Z,16.37
2018-09-25T06:01:54.807Z,15.50
2018-09-25T06:04:31.906Z,17.03
2018-09-25T06:07:09.246Z,13.20
2018-09-25T06:09:46.413Z,16.87
2018-09-25T06:12:23.398Z,15.83
2018-09-25T06:18:32.399Z,22.00
2018-09-25T06:21:09.789Z,13.73
2018-09-25T06:23:47.412Z,15.93
2018-09-25T06:26:25.876Z,11.20
2018-09-25T06:29:03.436Z,13.47
2018-09-25T06:31:41.445Z,13.60
2018-09-25T06:34:19.676Z,14.30
2018-09-25T06:36:58.674Z,12.83
2018-09-25T06:39:37.358Z,12.93
2018-09-25T06:42:14.976Z,12.10
2018-09-25T06:44:52.773Z,12.47
2018-09-25T06:47:30.502Z,13.20
2018-09-25T06:50:07.880Z,18.93
2018-09-25T06:52:45.585Z,14.67
2018-09-25T06:55:23.067Z,13.73
2018-09-25T06:58:01.277Z,12.50
2018-09-25T07:00:38.594Z,13.40
2018-09-25T07:03:16.227Z,15.30
2018-09-25T07:05:53.763Z,18.07
2018-09-25T07:08:31.888Z,13.90
2018-09-25T07:11:09.521Z,17.47
2018-09-25T07:13:47.091Z,18.33
2018-09-25T07:16:24.763Z,17.20
2018-09-25T07:19:02.342Z,14.93
2018-09-25T07:21:39.837Z,12.60
2018-09-25T07:24:17.753Z,15.10
2018-09-25T07:26:55.124Z,14.37
2018-09-25T07:29:34.221Z,16.60
2018-09-25T07:32:11.613Z,12.03
2018-09-25T07:34:49.362Z,14.87
2018-09-25T07:37:26.754Z,13.57
2018-09-25T07:40:04.295Z,15.60
2018-09-25T07:42:41.806Z,12.70
2018-09-25T07:45:19.600Z,14.93
2018-09-25T07:47:57.437Z,12.30
2018-09-25T07:50:35.187Z,10.60
2018-09-25T07:53:13.000Z,13.67
2018-09-25T07:55:50.633Z,14.13
2018-09-25T07:58:28.533Z,18.60
2018-09-25T08:01:06.051Z,12.83
2018-09-25T08:03:45.492Z,14.70
2018-09-25T08:06:23.076Z,21.83
2018-09-25T08:09:32.721Z,12.57
2018-09-25T08:12:09.490Z,15.43
2018-09-25T08:14:46.532Z,9.20
2018-09-25T08:17:24.163Z,11.23
2018-09-25T08:20:01.097Z,15.20
2018-09-25T08:22:38.173Z,14.93
2018-09-25T08:25:15.005Z,14.40
2018-09-25T08:27:52.618Z,11.33
2018-09-25T08:30:29.364Z,12.20
2018-09-25T08:33:07.024Z,14.33
2018-09-25T08:35:43.826Z,13.67
2018-09-25T08:38:20.685Z,10.07
2018-09-25T08:40:57.326Z,12.80
2018-09-25T08:43:34.303Z,11.33
2018-09-25T08:46:11.098Z,13.27
2018-09-25T08:48:48.572Z,11.20
2018-09-25T08:51:25.791Z,13.80
2018-09-25T08:54:02.411Z,15.20
2018-09-25T08:56:40.432Z,12.20
2018-09-25T08:59:17.747Z,19.93
2018-09-25T09:01:55.569Z,21.23
2018-09-25T09:04:32.533Z,15.17
2018-09-25T09:07:10.027Z,11.77
2018-09-25T09:09:47.424Z,14.27
2018-09-25T09:12:24.803Z,17.30
2018-09-25T09:15:04.398Z,18.10
2018-09-25T09:17:42.168Z,13.80
2018-09-25T09:20:18.929Z,13.87
2018-09-25T09:22:55.792Z,14.97
2018-09-25T09:25:32.656Z,13.27
2018-09-25T09:28:09.545Z,13.30
2018-09-25T09:30:47.141Z,10.53
2018-09-25T09:33:23.970Z,14.03
2018-09-25T09:36:00.791Z,12.93
2018-09-25T09:38:37.805Z,13.03
2018-09-25T09:41:47.362Z,12.50
2018-09-25T09:44:24.960Z,11.33
2018-09-25T09:47:02.138Z,12.60
2018-09-25T09:49:39.873Z,10.83
2018-09-25T09:52:17.192Z,9.10
2018-09-25T09:54:54.638Z,15.17
2018-09-25T09:57:31.917Z,12.60
2018-09-25T10:00:10.314Z,9.57
2018-09-25T10:02:48.028Z,13.53
2018-09-25T10:05:25.293Z,14.03
2018-09-25T10:08:03.038Z,14.97
2018-09-25T10:10:40.370Z,14.33
2018-09-25T10:13:17.759Z,14.70
2018-09-25T10:15:55.392Z,25.93
2018-09-25T10:18:32.691Z,18.73
2018-09-25T10:21:10.129Z,15.70
2018-09-25T10:23:47.588Z,20.30
2018-09-25T10:26:25.199Z,27.53
2018-09-25T10:29:02.989Z,19.83
2018-09-25T10:31:40.433Z,24.17
2018-09-25T10:34:19.942Z,15.47
2018-09-25T10:36:57.411Z,19.90
2018-09-25T10:39:36.007Z,14.10
2018-09-25T10:42:13.664Z,19.53
2018-09-25T10:44:51.344Z,18.50
2018-09-25T10:47:30.471Z,14.67
2018-09-25T10:50:07.806Z,22.77
2018-09-25T10:52:46.537Z,12.13
2018-09-25T10:55:23.883Z,17.03
2018-09-25T10:58:01.277Z,18.50
2018-09-25T11:00:38.754Z,19.20
2018-09-25T11:03:16.444Z,17.37
2018-09-25T11:05:53.730Z,17.33
2018-09-25T11:08:33.293Z,14.50
2018-09-25T11:11:10.575Z,15.20
2018-09-25T11:17:09.270Z,18.87
2018-09-25T11:19:46.644Z,15.63
2018-09-25T11:22:23.744Z,21.80
2018-09-25T11:25:01.369Z,18.83
2018-09-25T11:27:38.729Z,39.90
2018-09-25T11:30:16.197Z,34.87
2018-09-25T11:32:53.317Z,23.80
2018-09-25T11:35:30.452Z,28.27
2018-09-25T11:42:01.198Z,35.30
2018-09-25T11:44:39.335Z,29.10
2018-09-25T11:47:16.406Z,23.10
2018-09-25T11:49:53.098Z,25.20
2018-09-25T11:52:29.991Z,26.53
2018-09-25T11:55:07.817Z,27.43
2018-09-25T11:57:44.955Z,26.47
2018-09-25T12:03:42.902Z,35.57
2018-09-25T12:09:44.291Z,27.77
2018-09-25T12:12:24.688Z,25.40
2018-09-25T12:15:01.690Z,27.80
2018-09-25T12:17:38.431Z,24.57
2018-09-25T12:20:15.462Z,29.67
2018-09-25T12:22:52.910Z,22.80
2018-09-25T12:25:29.799Z,20.07
2018-09-25T12:28:07.124Z,20.73
2018-09-25T12:30:43.997Z,22.43
2018-09-25T12:33:21.069Z,29.03
2018-09-25T12:35:58.350Z,23.93
2018-09-25T12:38:35.901Z,20.47
2018-09-25T12:41:12.545Z,20.67
2018-09-25T12:43:50.124Z,19.13
2018-09-25T12:46:27.387Z,21.00
2018-09-25T12:49:04.246Z,19.87
2018-09-25T12:51:41.101Z,17.43
2018-09-25T12:54:18.796Z,13.83
2018-09-25T12:56:56.091Z,16.27
2018-09-25T12:59:33.353Z,13.03
2018-09-25T13:02:11.021Z,19.00
2018-09-25T13:04:48.169Z,17.87
2018-09-25T13:07:24.981Z,21.60
2018-09-25T13:10:03.124Z,15.50
2018-09-25T13:12:40.137Z,22.90
2018-09-25T13:15:18.928Z,23.77
2018-09-25T13:17:56.329Z,28.80
2018-09-25T13:20:33.620Z,28.33
2018-09-25T13:23:10.391Z,20.27
2018-09-25T13:25:50.118Z,18.93
2018-09-25T13:28:27.826Z,11.80
2018-09-25T13:31:04.791Z,17.90
2018-09-25T13:33:46.480Z,17.93
2018-09-25T13:36:25.715Z,13.30
2018-09-25T13:39:03.140Z,12.00
2018-09-25T13:41:40.601Z,9.83
2018-09-25T13:44:17.871Z,15.47
2018-09-25T13:46:54.561Z,12.57
2018-09-25T13:49:32.613Z,14.00
2018-09-25T14:03:59.214Z,12.47
2018-09-25T14:10:13.108Z,15.90
2018-09-25T14:12:51.821Z,13.60
2018-09-25T14:15:30.567Z,16.07
2018-09-25T14:18:07.880Z,12.57
2018-09-25T14:20:45.347Z,11.27
2018-09-25T14:23:42.089Z,11.60
2018-09-25T14:26:38.862Z,12.90
2018-09-25T14:29:35.799Z,6.17
2018-09-25T14:32:34.047Z,11.50
2018-09-25T14:35:28.287Z,6.10
2018-09-25T14:41:57.825Z,10.40
2018-09-25T14:44:41.204Z,9.43
2018-09-25T14:47:24.764Z,8.53
2018-09-25T14:50:40.707Z,8.43
2018-09-25T14:53:28.725Z,13.10
2018-09-25T14:56:25.261Z,8.43
2018-09-25T14:59:22.224Z,9.45
2018-09-25T15:02:13.658Z,13.35
2018-09-25T15:05:06.033Z,7.60
2018-09-25T15:08:02.227Z,10.43
2018-09-25T15:10:43.522Z,14.43
2018-09-25T15:13:41.621Z,10.88
2018-09-25T15:16:35.387Z,8.50
2018-09-25T15:19:33.939Z,15.53
2018-09-25T15:22:29.831Z,6.95
2018-09-25T15:25:24.370Z,3.80
2018-09-25T15:28:18.027Z,4.45
2018-09-25T15:31:16.944Z,6.35
2018-09-25T15:33:54.481Z,5.87
2018-09-25T15:36:31.680Z,6.55
2018-09-25T15:39:08.619Z,10.40
2018-09-25T15:41:45.764Z,12.03
2018-09-25T15:44:22.655Z,6.47
2018-09-25T15:47:00.966Z,6.47
2018-09-25T15:49:37.699Z,8.08
2018-09-25T15:52:14.620Z,7.78
2018-09-25T15:54:51.848Z,11.85
2018-09-25T15:57:28.922Z,8.15
2018-09-25T16:00:06.098Z,8.40
2018-09-25T16:02:45.933Z,12.58
2018-09-25T16:05:22.456Z,8.33
2018-09-25T16:07:59.272Z,8.78
2018-09-25T16:10:53.490Z,7.45
2018-09-25T16:13:33.369Z,10.55
2018-09-25T16:16:10.655Z,11.33
2018-09-25T16:18:49.000Z,13.55
2018-09-25T16:21:27.910Z,7.58
2018-09-25T16:24:05.065Z,14.05
2018-09-25T16:26:41.642Z,12.10
2018-09-25T16:29:18.366Z,5.28
2018-09-25T16:31:56.423Z,7.72
2018-09-25T16:34:33.365Z,7.50
2018-09-25T16:37:10.552Z,11.33
2018-09-25T16:39:48.016Z,6.47
2018-09-25T16:42:25.172Z,8.80
2018-09-25T16:45:02.674Z,8.55
2018-09-25T16:47:39.964Z,8.95
2018-09-25T16:50:19.182Z,13.98
2018-09-25T16:52:56.828Z,8.08
2018-09-25T16:55:34.163Z,8.63
2018-09-25T16:58:10.943Z,12.88
2018-09-25T17:00:49.338Z,10.00
2018-09-25T17:03:28.046Z,7.45
2018-09-25T17:06:06.344Z,9.23
2018-09-25T17:08:43.501Z,9.80
2018-09-25T17:11:20.557Z,6.72
2018-09-25T17:13:59.612Z,8.15
2018-09-25T17:16:36.785Z,5.72
2018-09-25T17:19:13.496Z,6.65
2018-09-25T17:21:50.833Z,8.98
2018-09-25T17:24:28.317Z,6.12
2018-09-25T17:27:06.128Z,5.35
2018-09-25T17:29:45.198Z,10.70
2018-09-25T17:32:39.644Z,15.72
2018-09-25T17:35:33.468Z,10.38
2018-09-25T17:38:11.382Z,8.25
2018-09-25T17:40:48.875Z,12.47
2018-09-25T17:43:35.721Z,9.35
2018-09-25T17:46:14.374Z,9.30
2018-09-25T17:48:53.415Z,11.57
2018-09-25T17:51:31.827Z,11.33
2018-09-25T17:54:09.361Z,12.35
2018-09-25T17:56:46.160Z,7.55
2018-09-25T17:59:24.908Z,8.80
2018-09-25T18:02:01.808Z,15.88
2018-09-25T18:04:40.357Z,11.40
2018-09-25T18:10:39.199Z,13.70
2018-09-25T18:13:16.030Z,7.53
2018-09-25T18:15:55.746Z,6.95
2018-09-25T18:18:32.706Z,10.82
2018-09-25T18:21:10.316Z,3.90
2018-09-25T18:23:48.144Z,7.37
2018-09-25T18:26:25.613Z,4.95
2018-09-25T18:32:35.114Z,5.80
2018-09-25T18:35:12.293Z,4.80
2018-09-25T18:37:50.127Z,13.32
2018-09-25T18:40:27.091Z,6.22
2018-09-25T18:43:05.473Z,7.17
2018-09-25T18:45:42.884Z,8.38
2018-09-25T18:48:20.141Z,12.25
2018-09-25T18:50:57.213Z,7.47
2018-09-25T18:53:34.652Z,8.08
2018-09-25T18:56:11.684Z,5.35
2018-09-25T18:58:49.798Z,6.67
2018-09-25T19:01:27.809Z,9.63
2018-09-25T19:04:05.866Z,4.97
2018-09-25T19:06:43.747Z,8.98
2018-09-25T19:09:21.308Z,10.65
2018-09-25T19:11:58.338Z,8.33
2018-09-25T19:14:36.060Z,9.53
2018-09-25T19:17:13.406Z,5.90
2018-09-25T19:19:51.193Z,13.30
2018-09-25T19:22:28.737Z,8.00
2018-09-25T19:25:07.012Z,13.28
2018-09-25T19:27:44.477Z,4.12
2018-09-25T19:30:22.234Z,7.62
2018-09-25T19:32:59.712Z,8.58
2018-09-25T19:35:37.323Z,5.75
2018-09-25T19:38:14.448Z,7.62
2018-09-25T19:40:52.366Z,6.35
2018-09-25T19:43:29.675Z,6.28
2018-09-25T19:46:06.981Z,6.17
2018-09-25T19:48:44.372Z,12.10
2018-09-25T19:51:22.871Z,5.03
2018-09-25T19:54:00.715Z,3.50
2018-09-25T19:56:38.379Z,6.42
2018-09-25T19:59:16.376Z,5.53
2018-09-25T20:01:56.268Z,7.35
2018-09-25T20:04:34.004Z,8.23
2018-09-25T20:07:17.682Z,8.68
2018-09-25T20:09:54.959Z,8.88
2018-09-25T20:12:32.415Z,6.75
2018-09-25T20:15:09.493Z,7.17
2018-09-25T20:17:47.078Z,9.25
2018-09-25T20:20:24.470Z,7.55
2018-09-25T20:23:02.062Z,7.03
2018-09-25T20:25:39.513Z,10.95
2018-09-25T20:28:17.021Z,4.60
2018-09-25T20:30:55.248Z,5.75
2018-09-25T20:33:34.308Z,7.53
2018-09-25T20:36:39.601Z,9.33
2018-09-25T20:39:17.620Z,13.72
2018-09-25T20:41:55.133Z,4.30
2018-09-25T20:44:32.946Z,11.48
2018-09-25T20:47:10.552Z,11.85
2018-09-25T20:49:48.178Z,6.90
2018-09-25T20:52:25.938Z,6.97
2018-09-25T20:55:03.577Z,5.97
2018-09-25T20:57:40.987Z,11.28
2018-09-25T21:00:18.614Z,6.37
2018-09-25T21:02:56.088Z,6.80
2018-09-25T21:05:33.535Z,6.20
2018-09-25T21:08:10.857Z,4.92
2018-09-25T21:10:48.574Z,11.43
2018-09-25T21:13:26.951Z,10.60
2018-09-25T21:16:04.376Z,8.68
2018-09-25T21:18:41.774Z,7.25
2018-09-25T21:21:20.162Z,7.53
2018-09-25T21:23:57.875Z,4.80
2018-09-25T21:26:35.077Z,7.53
2018-09-25T21:29:12.580Z,7.08
2018-09-25T21:31:50.027Z,6.03
2018-09-25T21:34:31.416Z,8.48
2018-09-25T21:37:08.592Z,9.13
2018-09-25T21:39:46.094Z,5.53
2018-09-25T21:42:23.517Z,7.85
2018-09-25T21:45:00.927Z,8.60
2018-09-25T21:47:38.346Z,5.85
2018-09-25T21:50:15.558Z,6.50
2018-09-25T21:52:53.295Z,15.18
2018-09-25T21:55:30.387Z,9.75
2018-09-25T21:58:09.374Z,8.95
2018-09-25T22:00:47.141Z,6.73
2018-09-25T22:03:25.873Z,10.88
2018-09-25T22:06:03.162Z,10.32
2018-09-25T22:08:40.624Z,5.45
2018-09-25T22:11:18.329Z,10.93
2018-09-25T22:13:56.092Z,10.75
2018-09-25T22:16:33.584Z,7.55
2018-09-25T22:19:10.963Z,8.07
2018-09-25T22:21:48.472Z,9.70
2018-09-25T22:24:26.319Z,6.17
2018-09-25T22:27:03.595Z,4.03
2018-09-25T22:29:41.141Z,10.78
2018-09-25T22:32:18.381Z,5.97
2018-09-25T22:34:57.048Z,7.97
2018-09-25T22:37:34.462Z,5.92
2018-09-25T22:40:11.841Z,12.15
2018-09-25T22:42:49.107Z,5.62
2018-09-25T22:45:26.243Z,12.85
2018-09-25T22:48:04.784Z,8.25
2018-09-25T22:50:42.154Z,17.15
2018-09-25T22:53:19.607Z,11.15
2018-09-25T22:59:29.382Z,11.85
2018-09-25T23:02:07.977Z,9.93
2018-09-25T23:04:44.664Z,10.10
2018-09-25T23:07:21.340Z,8.63
2018-09-25T23:09:58.168Z,4.40
2018-09-25T23:15:59.052Z,10.43
2018-09-25T23:18:39.363Z,10.90
2018-09-25T23:21:16.551Z,7.67
2018-09-25T23:23:53.289Z,9.53
2018-09-25T23:26:30.966Z,7.23
2018-09-25T23:29:07.620Z,19.97
2018-09-25T23:31:44.420Z,8.87
2018-09-25T23:34:21.298Z,10.80
2018-09-25T23:36:58.286Z,7.53
2018-09-25T23:39:36.207Z,10.67
2018-09-25T23:42:43.649Z,11.70
2018-09-25T23:49:06.592Z,58.77
2018-09-25T23:51:44.296Z,43.23
2018-09-25T23:54:37.101Z,21.17
2018-09-25T23:57:19.593Z,10.30
2018-09-25T23:59:57.131Z,9.30
